sensor_id;sensor_type;location;lat;lon;timestamp;pressure;altitude;pressure_sealevel;temperature;humidity
27014;BME280;14556;52.222;4.510;2023-05-07T00:00:05;100937.47;;;11.92;100.00
27014;BME280;14556;52.222;4.510;2023-05-07T00:02:35;100940.38;;;11.90;100.00
27014;BME280;14556;52.222;4.510;2023-05-07T00:05:02;100931.06;;;11.86;100.00
27014;BME280;14556;52.222;4.510;2023-05-07T00:07:30;100933.34;;;11.89;100.00
27014;BME280;14556;52.222;4.510;2023-05-07T00:09:56;100933.97;;;11.84;100.00
27014;BME280;14556;52.222;4.510;2023-05-07T00:12:23;100949.19;;;11.84;100.00
27014;BME280;14556;52.222;4.510;2023-05-07T00:14:51;100947.78;;;11.81;100.00
27014;BME280;14556;52.222;4.510;2023-05-07T00:17:17;100951.69;;;11.85;100.00
27014;BME280;14556;52.222;4.510;2023-05-07T00:19:44;100958.28;;;11.83;100.00
27014;BME280;14556;52.222;4.510;2023-05-07T00:22:11;100955.41;;;11.78;100.00
27014;BME280;14556;52.222;4.510;2023-05-07T00:24:38;100961.38;;;11.80;100.00
27014;BME280;14556;52.222;4.510;2023-05-07T00:27:04;100954.56;;;11.77;100.00
27014;BME280;14556;52.222;4.510;2023-05-07T00:29:31;100958.06;;;11.78;100.00
27014;BME280;14556;52.222;4.510;2023-05-07T00:31:58;100952.72;;;11.78;100.00
27014;BME280;14556;52.222;4.510;2023-05-07T00:34:24;100953.34;;;11.80;100.00
27014;BME280;14556;52.222;4.510;2023-05-07T00:36:50;100949.00;;;11.79;100.00
27014;BME280;14556;52.222;4.510;2023-05-07T00:39:17;100951.88;;;11.77;100.00
27014;BME280;14556;52.222;4.510;2023-05-07T00:41:43;100943.41;;;11.73;100.00
27014;BME280;14556;52.222;4.510;2023-05-07T00:44:10;100939.50;;;11.69;100.00
27014;BME280;14556;52.222;4.510;2023-05-07T00:46:37;100944.03;;;11.69;100.00
27014;BME280;14556;52.222;4.510;2023-05-07T00:49:04;100949.41;;;11.69;100.00
27014;BME280;14556;52.222;4.510;2023-05-07T00:51:32;100943.22;;;11.68;100.00
27014;BME280;14556;52.222;4.510;2023-05-07T00:54:01;100944.88;;;11.69;100.00
27014;BME280;14556;52.222;4.510;2023-05-07T00:56:28;100943.81;;;11.64;100.00
27014;BME280;14556;52.222;4.510;2023-05-07T00:58:55;100944.03;;;11.69;100.00
27014;BME280;14556;52.222;4.510;2023-05-07T01:01:21;100950.03;;;11.71;100.00
27014;BME280;14556;52.222;4.510;2023-05-07T01:03:48;100946.50;;;11.70;100.00
27014;BME280;14556;52.222;4.510;2023-05-07T01:06:16;100945.50;;;11.71;100.00
27014;BME280;14556;52.222;4.510;2023-05-07T01:08:45;100940.94;;;11.72;100.00
27014;BME280;14556;52.222;4.510;2023-05-07T01:11:12;100921.34;;;11.58;100.00
27014;BME280;14556;52.222;4.510;2023-05-07T01:13:39;100940.31;;;11.70;100.00
27014;BME280;14556;52.222;4.510;2023-05-07T01:16:06;100934.16;;;11.69;100.00
27014;BME280;14556;52.222;4.510;2023-05-07T01:18:34;100932.91;;;11.72;100.00
27014;BME280;14556;52.222;4.510;2023-05-07T01:21:04;100936.63;;;11.71;100.00
27014;BME280;14556;52.222;4.510;2023-05-07T01:23:31;100931.06;;;11.72;100.00
27014;BME280;14556;52.222;4.510;2023-05-07T01:25:59;100922.81;;;11.67;100.00
27014;BME280;14556;52.222;4.510;2023-05-07T01:28:25;100929.59;;;11.70;100.00
27014;BME280;14556;52.222;4.510;2023-05-07T01:31:00;100933.94;;;11.71;100.00
27014;BME280;14556;52.222;4.510;2023-05-07T01:33:29;100917.44;;;11.67;100.00
27014;BME280;14556;52.222;4.510;2023-05-07T01:35:58;100920.75;;;11.69;100.00
27014;BME280;14556;52.222;4.510;2023-05-07T01:38:28;100926.75;;;11.71;100.00
27014;BME280;14556;52.222;4.510;2023-05-07T01:40:55;100921.19;;;11.73;100.00
27014;BME280;14556;52.222;4.510;2023-05-07T01:43:22;100927.97;;;11.76;100.00
27014;BME280;14556;52.222;4.510;2023-05-07T01:45:49;100921.78;;;11.75;100.00
27014;BME280;14556;52.222;4.510;2023-05-07T01:48:16;100918.09;;;11.76;100.00
27014;BME280;14556;52.222;4.510;2023-05-07T01:50:44;100916.03;;;11.71;100.00
27014;BME280;14556;52.222;4.510;2023-05-07T01:53:11;100927.34;;;11.73;100.00
27014;BME280;14556;52.222;4.510;2023-05-07T01:55:37;100922.19;;;11.72;100.00
27014;BME280;14556;52.222;4.510;2023-05-07T01:58:04;100928.38;;;11.72;100.00
27014;BME280;14556;52.222;4.510;2023-05-07T02:00:31;100925.91;;;11.71;100.00
27014;BME280;14556;52.222;4.510;2023-05-07T02:02:58;100925.91;;;11.71;100.00
27014;BME280;14556;52.222;4.510;2023-05-07T02:05:25;100919.72;;;11.70;100.00
27014;BME280;14556;52.222;4.510;2023-05-07T02:07:51;100926.53;;;11.73;100.00
27014;BME280;14556;52.222;4.510;2023-05-07T02:10:18;100928.19;;;11.74;100.00
27014;BME280;14556;52.222;4.510;2023-05-07T02:12:44;100930.66;;;11.76;100.00
27014;BME280;14556;52.222;4.510;2023-05-07T02:15:11;100931.47;;;11.76;100.00
27014;BME280;14556;52.222;4.510;2023-05-07T02:17:58;100926.13;;;11.76;100.00
27014;BME280;14556;52.222;4.510;2023-05-07T02:20:25;100920.34;;;11.72;100.00
27014;BME280;14556;52.222;4.510;2023-05-07T02:22:52;100923.22;;;11.71;100.00
27014;BME280;14556;52.222;4.510;2023-05-07T02:25:18;100928.38;;;11.72;100.00
27014;BME280;14556;52.222;4.510;2023-05-07T02:27:45;100931.69;;;11.75;100.00
27014;BME280;14556;52.222;4.510;2023-05-07T02:30:11;100927.97;;;11.76;100.00
27014;BME280;14556;52.222;4.510;2023-05-07T02:32:38;100934.38;;;11.75;100.00
27014;BME280;14556;52.222;4.510;2023-05-07T02:35:05;100928.81;;;11.76;100.00
27014;BME280;14556;52.222;4.510;2023-05-07T02:37:31;100931.47;;;11.76;100.00
27014;BME280;14556;52.222;4.510;2023-05-07T02:39:58;100935.00;;;11.77;100.00
27014;BME280;14556;52.222;4.510;2023-05-07T02:42:24;100925.72;;;11.72;100.00
27014;BME280;14556;52.222;4.510;2023-05-07T02:44:51;100928.81;;;11.69;100.00
27014;BME280;14556;52.222;4.510;2023-05-07T02:47:17;100924.44;;;11.68;100.00
27014;BME280;14556;52.222;4.510;2023-05-07T02:49:44;100931.47;;;11.69;100.00
27014;BME280;14556;52.222;4.510;2023-05-07T02:52:11;100934.97;;;11.70;100.00
27014;BME280;14556;52.222;4.510;2023-05-07T02:54:37;100933.13;;;11.70;100.00
27014;BME280;14556;52.222;4.510;2023-05-07T02:57:04;100931.47;;;11.69;100.00
27014;BME280;14556;52.222;4.510;2023-05-07T02:59:30;100927.53;;;11.65;100.00
27014;BME280;14556;52.222;4.510;2023-05-07T03:01:57;100927.75;;;11.70;100.00
27014;BME280;14556;52.222;4.510;2023-05-07T03:04:23;100933.94;;;11.71;100.00
27014;BME280;14556;52.222;4.510;2023-05-07T03:06:50;100935.78;;;11.70;100.00
27014;BME280;14556;52.222;4.510;2023-05-07T03:09:16;100932.09;;;11.71;100.00
27014;BME280;14556;52.222;4.510;2023-05-07T03:11:43;100924.66;;;11.67;100.00
27014;BME280;14556;52.222;4.510;2023-05-07T03:14:10;100929.00;;;11.68;100.00
27014;BME280;14556;52.222;4.510;2023-05-07T03:16:37;100930.66;;;11.69;100.00
27014;BME280;14556;52.222;4.510;2023-05-07T03:19:04;100927.97;;;11.69;100.00
27014;BME280;14556;52.222;4.510;2023-05-07T03:21:31;100926.31;;;11.68;100.00
27014;BME280;14556;52.222;4.510;2023-05-07T03:24:00;100920.97;;;11.68;100.00
27014;BME280;14556;52.222;4.510;2023-05-07T03:26:27;100924.03;;;11.65;100.00
27014;BME280;14556;52.222;4.510;2023-05-07T03:28:54;100928.38;;;11.66;100.00
27014;BME280;14556;52.222;4.510;2023-05-07T03:31:21;100925.69;;;11.66;100.00
27014;BME280;14556;52.222;4.510;2023-05-07T03:33:52;100919.31;;;11.67;100.00
27014;BME280;14556;52.222;4.510;2023-05-07T03:36:19;100909.00;;;11.64;100.00
27014;BME280;14556;52.222;4.510;2023-05-07T03:38:47;100922.81;;;11.67;100.00
27014;BME280;14556;52.222;4.510;2023-05-07T03:41:14;100924.44;;;11.68;100.00
27014;BME280;14556;52.222;4.510;2023-05-07T03:43:40;100915.81;;;11.66;100.00
27014;BME280;14556;52.222;4.510;2023-05-07T03:46:07;100919.94;;;11.69;100.00
27014;BME280;14556;52.222;4.510;2023-05-07T03:48:33;100920.34;;;11.66;100.00
27014;BME280;14556;52.222;4.510;2023-05-07T03:51:00;100921.97;;;11.67;100.00
27014;BME280;14556;52.222;4.510;2023-05-07T03:53:26;100916.00;;;11.65;100.00
27014;BME280;14556;52.222;4.510;2023-05-07T03:55:53;100923.84;;;11.66;100.00
27014;BME280;14556;52.222;4.510;2023-05-07T03:58:19;100932.50;;;11.68;100.00
27014;BME280;14556;52.222;4.510;2023-05-07T04:00:46;100926.91;;;11.63;100.00
27014;BME280;14556;52.222;4.510;2023-05-07T04:03:12;100931.06;;;11.66;100.00
27014;BME280;14556;52.222;4.510;2023-05-07T04:05:39;100926.91;;;11.63;100.00
27014;BME280;14556;52.222;4.510;2023-05-07T04:08:06;100933.75;;;11.66;100.00
27014;BME280;14556;52.222;4.510;2023-05-07T04:10:32;100931.06;;;11.66;100.00
27014;BME280;14556;52.222;4.510;2023-05-07T04:12:58;100937.25;;;11.66;100.00
27014;BME280;14556;52.222;4.510;2023-05-07T04:15:25;100936.22;;;11.67;100.00
27014;BME280;14556;52.222;4.510;2023-05-07T04:17:52;100939.94;;;11.66;100.00
27014;BME280;14556;52.222;4.510;2023-05-07T04:20:18;100940.94;;;11.65;100.00
27014;BME280;14556;52.222;4.510;2023-05-07T04:22:45;100942.59;;;11.66;100.00
27014;BME280;14556;52.222;4.510;2023-05-07T04:25:11;100940.53;;;11.68;100.00
27014;BME280;14556;52.222;4.510;2023-05-07T04:27:38;100940.53;;;11.68;100.00
27014;BME280;14556;52.222;4.510;2023-05-07T04:30:04;100937.03;;;11.68;100.00
27014;BME280;14556;52.222;4.510;2023-05-07T04:32:31;100934.56;;;11.66;100.00
27014;BME280;14556;52.222;4.510;2023-05-07T04:34:58;100940.31;;;11.70;100.00
27014;BME280;14556;52.222;4.510;2023-05-07T04:37:25;100939.50;;;11.69;100.00
27014;BME280;14556;52.222;4.510;2023-05-07T04:39:52;100944.88;;;11.69;100.00
27014;BME280;14556;52.222;4.510;2023-05-07T04:42:19;100935.16;;;11.68;100.00
27014;BME280;14556;52.222;4.510;2023-05-07T04:44:45;100938.88;;;11.67;100.00
27014;BME280;14556;52.222;4.510;2023-05-07T04:47:12;100943.84;;;11.70;100.00
27014;BME280;14556;52.222;4.510;2023-05-07T04:49:38;100938.47;;;11.70;100.00
27014;BME280;14556;52.222;4.510;2023-05-07T04:52:05;100943.00;;;11.70;100.00
27014;BME280;14556;52.222;4.510;2023-05-07T04:54:31;100946.31;;;11.72;100.00
27014;BME280;14556;52.222;4.510;2023-05-07T04:56:58;100945.09;;;11.75;100.00
27014;BME280;14556;52.222;4.510;2023-05-07T04:59:24;100946.72;;;11.76;100.00
27014;BME280;14556;52.222;4.510;2023-05-07T05:01:51;100944.25;;;11.74;100.00
27014;BME280;14556;52.222;4.510;2023-05-07T05:04:18;100950.25;;;11.76;100.00
27014;BME280;14556;52.222;4.510;2023-05-07T05:06:44;100943.84;;;11.77;100.00
27014;BME280;14556;52.222;4.510;2023-05-07T05:09:11;100954.16;;;11.80;100.00
27014;BME280;14556;52.222;4.510;2023-05-07T05:11:38;100956.66;;;11.82;100.00
27014;BME280;14556;52.222;4.510;2023-05-07T05:14:05;100959.34;;;11.82;100.00
27014;BME280;14556;52.222;4.510;2023-05-07T05:16:31;100956.22;;;11.85;100.00
27014;BME280;14556;52.222;4.510;2023-05-07T05:18:58;100954.19;;;11.87;100.00
27014;BME280;14556;52.222;4.510;2023-05-07T05:21:24;100955.81;;;11.88;100.00
27014;BME280;14556;52.222;4.510;2023-05-07T05:23:51;100954.78;;;11.89;100.00
27014;BME280;14556;52.222;4.510;2023-05-07T05:26:18;100956.88;;;11.94;100.00
27014;BME280;14556;52.222;4.510;2023-05-07T05:28:45;100958.09;;;11.98;100.00
27014;BME280;14556;52.222;4.510;2023-05-07T05:31:11;100955.81;;;12.02;100.00
27014;BME280;14556;52.222;4.510;2023-05-07T05:33:38;100958.72;;;12.07;100.00
27014;BME280;14556;52.222;4.510;2023-05-07T05:36:04;100956.88;;;12.07;100.00
27014;BME280;14556;52.222;4.510;2023-05-07T05:38:31;100957.94;;;12.13;100.00
27014;BME280;14556;52.222;4.510;2023-05-07T05:40:58;100960.63;;;12.13;100.00
27014;BME280;14556;52.222;4.510;2023-05-07T05:43:24;100970.72;;;12.18;100.00
27014;BME280;14556;52.222;4.510;2023-05-07T05:45:50;100968.66;;;12.20;100.00
27014;BME280;14556;52.222;4.510;2023-05-07T05:48:17;100970.28;;;12.21;100.00
27014;BME280;14556;52.222;4.510;2023-05-07T05:50:43;100971.97;;;12.22;100.00
27014;BME280;14556;52.222;4.510;2023-05-07T05:53:10;100972.97;;;12.28;100.00
27014;BME280;14556;52.222;4.510;2023-05-07T05:55:39;100977.31;;;12.29;100.00
27014;BME280;14556;52.222;4.510;2023-05-07T05:58:05;100981.44;;;12.31;100.00
27014;BME280;14556;52.222;4.510;2023-05-07T06:00:32;100982.25;;;12.39;100.00
27014;BME280;14556;52.222;4.510;2023-05-07T06:02:58;100975.03;;;12.39;100.00
27014;BME280;14556;52.222;4.510;2023-05-07T06:05:25;100981.63;;;12.43;100.00
27014;BME280;14556;52.222;4.510;2023-05-07T06:07:51;100976.69;;;12.47;100.00
27014;BME280;14556;52.222;4.510;2023-05-07T06:10:18;100989.06;;;12.48;100.00
27014;BME280;14556;52.222;4.510;2023-05-07T06:12:44;100992.59;;;12.55;100.00
27014;BME280;14556;52.222;4.510;2023-05-07T06:15:13;100972.78;;;12.50;100.00
27014;BME280;14556;52.222;4.510;2023-05-07T06:17:39;100986.34;;;12.68;100.00
27014;BME280;14556;52.222;4.510;2023-05-07T06:20:06;100980.56;;;12.72;100.00
27014;BME280;14556;52.222;4.510;2023-05-07T06:22:33;100988.41;;;12.66;100.00
27014;BME280;14556;52.222;4.510;2023-05-07T06:25:00;100982.63;;;12.63;100.00
27014;BME280;14556;52.222;4.510;2023-05-07T06:27:26;100984.09;;;12.65;100.00
27014;BME280;14556;52.222;4.510;2023-05-07T06:29:54;100985.34;;;12.69;100.00
27014;BME280;14556;52.222;4.510;2023-05-07T06:32:20;100993.38;;;12.69;100.00
27014;BME280;14556;52.222;4.510;2023-05-07T06:34:47;101000.41;;;12.71;100.00
27014;BME280;14556;52.222;4.510;2023-05-07T06:37:13;100999.53;;;12.77;100.00
27014;BME280;14556;52.222;4.510;2023-05-07T06:39:40;101000.16;;;12.79;100.00
27014;BME280;14556;52.222;4.510;2023-05-07T06:42:07;101002.63;;;12.80;100.00
27014;BME280;14556;52.222;4.510;2023-05-07T06:44:33;100995.00;;;12.84;100.00
27014;BME280;14556;52.222;4.510;2023-05-07T06:46:59;100997.69;;;12.84;100.00
27014;BME280;14556;52.222;4.510;2023-05-07T06:49:26;101006.97;;;12.88;100.00
27014;BME280;14556;52.222;4.510;2023-05-07T06:51:52;101002.63;;;12.94;100.00
27014;BME280;14556;52.222;4.510;2023-05-07T06:54:19;101003.81;;;13.05;100.00
27014;BME280;14556;52.222;4.510;2023-05-07T06:56:46;100998.22;;;13.13;100.00
27014;BME280;14556;52.222;4.510;2023-05-07T06:59:13;100999.81;;;13.28;100.00
27014;BME280;14556;52.222;4.510;2023-05-07T07:01:39;100988.16;;;13.48;100.00
27014;BME280;14556;52.222;4.510;2023-05-07T07:04:06;100996.78;;;13.63;100.00
27014;BME280;14556;52.222;4.510;2023-05-07T07:06:33;100995.41;;;13.86;100.00
27014;BME280;14556;52.222;4.510;2023-05-07T07:08:59;100992.63;;;14.00;100.00
27014;BME280;14556;52.222;4.510;2023-05-07T07:11:27;100992.91;;;14.17;100.00
27014;BME280;14556;52.222;4.510;2023-05-07T07:13:54;100993.03;;;14.29;100.00
27014;BME280;14556;52.222;4.510;2023-05-07T07:16:21;100988.56;;;14.42;100.00
27014;BME280;14556;52.222;4.510;2023-05-07T07:18:48;100987.06;;;14.27;100.00
27014;BME280;14556;52.222;4.510;2023-05-07T07:21:15;100989.66;;;14.08;100.00
27014;BME280;14556;52.222;4.510;2023-05-07T07:23:41;100996.75;;;14.28;100.00
27014;BME280;14556;52.222;4.510;2023-05-07T07:26:08;100997.09;;;14.38;100.00
27014;BME280;14556;52.222;4.510;2023-05-07T07:28:42;100992.25;;;14.47;100.00
27014;BME280;14556;52.222;4.510;2023-05-07T07:31:10;100988.09;;;14.52;100.00
27014;BME280;14556;52.222;4.510;2023-05-07T07:33:37;100995.50;;;15.01;100.00
27014;BME280;14556;52.222;4.510;2023-05-07T07:36:05;100990.97;;;14.94;100.00
27014;BME280;14556;52.222;4.510;2023-05-07T07:38:33;100991.34;;;14.98;100.00
27014;BME280;14556;52.222;4.510;2023-05-07T07:41:00;100998.09;;;15.07;100.00
27014;BME280;14556;52.222;4.510;2023-05-07T07:43:27;100988.50;;;15.11;100.00
27014;BME280;14556;52.222;4.510;2023-05-07T07:45:54;100994.56;;;15.26;100.00
27014;BME280;14556;52.222;4.510;2023-05-07T07:48:20;100995.22;;;15.40;100.00
27014;BME280;14556;52.222;4.510;2023-05-07T07:50:50;100989.72;;;15.46;100.00
27014;BME280;14556;52.222;4.510;2023-05-07T07:53:20;100978.03;;;15.53;100.00
27014;BME280;14556;52.222;4.510;2023-05-07T07:55:47;100984.59;;;15.57;100.00
27014;BME280;14556;52.222;4.510;2023-05-07T07:58:13;100975.19;;;15.78;100.00
27014;BME280;14556;52.222;4.510;2023-05-07T08:00:40;100984.00;;;15.86;100.00
27014;BME280;14556;52.222;4.510;2023-05-07T08:03:09;100971.72;;;15.90;100.00
27014;BME280;14556;52.222;4.510;2023-05-07T08:05:36;100981.50;;;16.15;100.00
27014;BME280;14556;52.222;4.510;2023-05-07T08:08:03;100983.50;;;16.07;100.00
27014;BME280;14556;52.222;4.510;2023-05-07T08:10:29;100982.22;;;16.22;100.00
27014;BME280;14556;52.222;4.510;2023-05-07T08:13:00;100983.41;;;16.50;100.00
27014;BME280;14556;52.222;4.510;2023-05-07T08:15:28;100982.44;;;16.33;100.00
27014;BME280;14556;52.222;4.510;2023-05-07T08:17:54;100991.00;;;16.17;100.00
27014;BME280;14556;52.222;4.510;2023-05-07T08:20:23;100997.78;;;16.08;100.00
27014;BME280;14556;52.222;4.510;2023-05-07T08:22:51;101003.13;;;15.84;100.00
27014;BME280;14556;52.222;4.510;2023-05-07T08:25:17;101007.22;;;15.87;100.00
27014;BME280;14556;52.222;4.510;2023-05-07T08:27:44;100996.56;;;15.92;100.00
27014;BME280;14556;52.222;4.510;2023-05-07T08:30:11;101008.06;;;16.30;100.00
27014;BME280;14556;52.222;4.510;2023-05-07T08:32:38;101005.94;;;16.56;100.00
27014;BME280;14556;52.222;4.510;2023-05-07T08:35:05;101011.69;;;16.84;100.00
27014;BME280;14556;52.222;4.510;2023-05-07T08:37:31;101021.53;;;17.14;100.00
27014;BME280;14556;52.222;4.510;2023-05-07T08:39:58;101014.94;;;17.10;100.00
27014;BME280;14556;52.222;4.510;2023-05-07T08:42:24;101012.59;;;17.01;100.00
27014;BME280;14556;52.222;4.510;2023-05-07T08:44:53;101009.53;;;16.98;100.00
27014;BME280;14556;52.222;4.510;2023-05-07T08:47:29;101001.00;;;16.77;100.00
27014;BME280;14556;52.222;4.510;2023-05-07T08:49:58;101011.56;;;16.78;100.00
27014;BME280;14556;52.222;4.510;2023-05-07T08:52:26;101014.25;;;16.90;100.00
27014;BME280;14556;52.222;4.510;2023-05-07T08:54:53;101020.22;;;17.04;100.00
27014;BME280;14556;52.222;4.510;2023-05-07T08:57:19;101015.28;;;17.01;100.00
27014;BME280;14556;52.222;4.510;2023-05-07T08:59:47;101011.78;;;16.89;100.00
27014;BME280;14556;52.222;4.510;2023-05-07T09:02:14;101010.25;;;16.93;100.00
27014;BME280;14556;52.222;4.510;2023-05-07T09:04:42;101022.56;;;17.01;100.00
27014;BME280;14556;52.222;4.510;2023-05-07T09:07:08;101008.00;;;17.14;100.00
27014;BME280;14556;52.222;4.510;2023-05-07T09:09:35;101022.16;;;17.45;100.00
27014;BME280;14556;52.222;4.510;2023-05-07T09:12:01;101024.41;;;17.66;100.00
27014;BME280;14556;52.222;4.510;2023-05-07T09:14:29;101018.31;;;17.87;100.00
27014;BME280;14556;52.222;4.510;2023-05-07T09:16:56;101014.53;;;18.06;100.00
27014;BME280;14556;52.222;4.510;2023-05-07T09:19:24;101015.22;;;18.13;100.00
27014;BME280;14556;52.222;4.510;2023-05-07T09:22:04;101018.78;;;18.14;100.00
27014;BME280;14556;52.222;4.510;2023-05-07T09:24:31;101022.22;;;17.80;100.00
27014;BME280;14556;52.222;4.510;2023-05-07T09:27:01;101020.16;;;17.70;100.00
27014;BME280;14556;52.222;4.510;2023-05-07T09:29:28;101018.00;;;17.55;100.00
27014;BME280;14556;52.222;4.510;2023-05-07T09:31:56;101025.34;;;17.42;100.00
27014;BME280;14556;52.222;4.510;2023-05-07T09:34:23;101027.25;;;17.30;100.00
27014;BME280;14556;52.222;4.510;2023-05-07T09:36:49;101032.91;;;17.28;100.00
27014;BME280;14556;52.222;4.510;2023-05-07T09:39:16;101029.97;;;17.18;100.00
27014;BME280;14556;52.222;4.510;2023-05-07T09:41:44;101023.88;;;17.10;100.00
27014;BME280;14556;52.222;4.510;2023-05-07T09:44:12;101036.91;;;17.13;100.00
27014;BME280;14556;52.222;4.510;2023-05-07T09:46:42;101030.69;;;17.25;100.00
27014;BME280;14556;52.222;4.510;2023-05-07T09:49:12;101031.38;;;17.20;100.00
27014;BME280;14556;52.222;4.510;2023-05-07T09:51:45;101017.28;;;17.18;100.00
27014;BME280;14556;52.222;4.510;2023-05-07T09:54:12;101028.38;;;17.34;100.00
27014;BME280;14556;52.222;4.510;2023-05-07T09:56:39;101030.63;;;17.37;100.00
27014;BME280;14556;52.222;4.510;2023-05-07T09:59:08;101032.69;;;17.18;100.00
27014;BME280;14556;52.222;4.510;2023-05-07T10:01:36;101045.50;;;17.10;100.00
27014;BME280;14556;52.222;4.510;2023-05-07T10:04:04;101041.97;;;17.10;100.00
27014;BME280;14556;52.222;4.510;2023-05-07T10:06:31;101039.03;;;17.11;100.00
27014;BME280;14556;52.222;4.510;2023-05-07T10:08:58;101024.56;;;17.06;100.00
27014;BME280;14556;52.222;4.510;2023-05-07T10:11:25;101040.56;;;17.19;100.00
27014;BME280;14556;52.222;4.510;2023-05-07T10:13:52;101042.06;;;17.15;100.00
27014;BME280;14556;52.222;4.510;2023-05-07T10:16:21;101045.38;;;17.17;100.00
27014;BME280;14556;52.222;4.510;2023-05-07T10:18:47;101035.84;;;17.14;100.00
27014;BME280;14556;52.222;4.510;2023-05-07T10:21:18;101041.81;;;17.28;100.00
27014;BME280;14556;52.222;4.510;2023-05-07T10:23:48;101040.75;;;17.30;100.00
27014;BME280;14556;52.222;4.510;2023-05-07T10:26:17;101034.25;;;17.43;100.00
27014;BME280;14556;52.222;4.510;2023-05-07T10:28:46;101042.25;;;17.49;100.00
27014;BME280;14556;52.222;4.510;2023-05-07T10:34:15;101048.25;;;17.69;100.00
27014;BME280;14556;52.222;4.510;2023-05-07T10:36:43;101042.81;;;17.81;100.00
27014;BME280;14556;52.222;4.510;2023-05-07T10:39:10;101035.84;;;17.85;100.00
27014;BME280;14556;52.222;4.510;2023-05-07T10:41:36;101039.63;;;17.84;100.00
27014;BME280;14556;52.222;4.510;2023-05-07T10:44:03;101035.16;;;17.77;100.00
27014;BME280;14556;52.222;4.510;2023-05-07T10:46:29;101038.41;;;17.62;100.00
27014;BME280;14556;52.222;4.510;2023-05-07T10:51:33;101045.25;;;17.53;100.00
27014;BME280;14556;52.222;4.510;2023-05-07T10:56:41;101045.78;;;17.79;100.00
27014;BME280;14556;52.222;4.510;2023-05-07T11:02:03;101051.59;;;17.88;100.00
27014;BME280;14556;52.222;4.510;2023-05-07T11:04:30;101055.47;;;17.92;100.00
27014;BME280;14556;52.222;4.510;2023-05-07T11:09:55;101051.53;;;18.00;100.00
27014;BME280;14556;52.222;4.510;2023-05-07T11:15:11;101066.53;;;17.91;100.00
27014;BME280;14556;52.222;4.510;2023-05-07T11:17:55;101060.34;;;17.78;100.00
27014;BME280;14556;52.222;4.510;2023-05-07T11:26:06;101053.72;;;17.86;100.00
27014;BME280;14556;52.222;4.510;2023-05-07T11:28:39;101045.09;;;18.18;100.00
27014;BME280;14556;52.222;4.510;2023-05-07T11:31:06;101047.00;;;18.52;100.00
27014;BME280;14556;52.222;4.510;2023-05-07T11:33:34;101044.25;;;18.69;100.00
27014;BME280;14556;52.222;4.510;2023-05-07T11:36:05;101046.41;;;18.67;100.00
27014;BME280;14556;52.222;4.510;2023-05-07T11:38:36;101040.50;;;18.53;100.00
27014;BME280;14556;52.222;4.510;2023-05-07T11:41:03;101045.84;;;18.48;100.00
27014;BME280;14556;52.222;4.510;2023-05-07T11:43:31;101051.25;;;18.31;100.00
27014;BME280;14556;52.222;4.510;2023-05-07T11:46:10;101056.41;;;18.15;100.00
27014;BME280;14556;52.222;4.510;2023-05-07T11:48:38;101048.94;;;18.05;100.00
27014;BME280;14556;52.222;4.510;2023-05-07T11:51:06;101055.53;;;17.97;100.00
27014;BME280;14556;52.222;4.510;2023-05-07T11:53:40;101038.69;;;17.78;100.00
27014;BME280;14556;52.222;4.510;2023-05-07T11:56:08;101064.91;;;17.90;100.00
27014;BME280;14556;52.222;4.510;2023-05-07T11:58:35;101066.00;;;17.76;100.00
27014;BME280;14556;52.222;4.510;2023-05-07T12:01:02;101067.63;;;17.77;100.00
27014;BME280;14556;52.222;4.510;2023-05-07T12:03:29;101066.47;;;17.73;100.00
27014;BME280;14556;52.222;4.510;2023-05-07T12:06:01;101077.91;;;17.75;100.00
27014;BME280;14556;52.222;4.510;2023-05-07T12:08:27;101065.72;;;17.61;100.00
27014;BME280;14556;52.222;4.510;2023-05-07T12:10:54;101083.59;;;17.50;100.00
27014;BME280;14556;52.222;4.510;2023-05-07T12:13:23;101084.03;;;17.30;100.00
27014;BME280;14556;52.222;4.510;2023-05-07T12:15:53;101075.91;;;17.06;100.00
27014;BME280;14556;52.222;4.510;2023-05-07T12:18:22;101102.47;;;16.97;100.00
27014;BME280;14556;52.222;4.510;2023-05-07T12:20:49;101097.16;;;16.78;100.00
27014;BME280;14556;52.222;4.510;2023-05-07T12:23:17;101095.88;;;16.57;100.00
27014;BME280;14556;52.222;4.510;2023-05-07T12:25:44;101097.03;;;16.49;100.00
27014;BME280;14556;52.222;4.510;2023-05-07T12:28:14;101092.63;;;16.24;100.00
27014;BME280;14556;52.222;4.510;2023-05-07T12:30:46;101108.91;;;16.17;100.00
27014;BME280;14556;52.222;4.510;2023-05-07T12:33:23;101114.34;;;15.98;100.00
27014;BME280;14556;52.222;4.510;2023-05-07T12:35:50;101111.38;;;15.88;100.00
27014;BME280;14556;52.222;4.510;2023-05-07T12:38:19;101113.66;;;15.72;100.00
27014;BME280;14556;52.222;4.510;2023-05-07T12:40:47;101113.03;;;15.70;100.00
27014;BME280;14556;52.222;4.510;2023-05-07T12:43:27;101128.19;;;15.52;100.00
27014;BME280;14556;52.222;4.510;2023-05-07T12:45:56;101127.72;;;15.37;100.00
27014;BME280;14556;52.222;4.510;2023-05-07T12:48:23;101145.00;;;15.29;100.00
27014;BME280;14556;52.222;4.510;2023-05-07T12:50:51;101135.19;;;15.16;100.00
27014;BME280;14556;52.222;4.510;2023-05-07T12:53:20;101131.03;;;15.20;100.00
27014;BME280;14556;52.222;4.510;2023-05-07T12:55:49;101125.09;;;15.11;100.00
27014;BME280;14556;52.222;4.510;2023-05-07T12:58:19;101128.28;;;15.01;100.00
27014;BME280;14556;52.222;4.510;2023-05-07T13:00:50;101142.88;;;14.93;100.00
27014;BME280;14556;52.222;4.510;2023-05-07T13:03:23;101139.00;;;14.82;100.00